sensor_id;sensor_type;location;lat;lon;timestamp;pressure;altitude;pressure_sealevel;temperature;humidity
84169;BME280;74295;50.146;8.794;2024-01-30T00:00:52;102143.81;;;1.53;87.50
84169;BME280;74295;50.146;8.794;2024-01-30T00:10:55;102143.28;;;1.40;87.70
84169;BME280;74295;50.146;8.794;2024-01-30T00:20:59;102156.09;;;1.27;87.72
84169;BME280;74295;50.146;8.794;2024-01-30T00:31:02;102150.50;;;1.21;87.77
84169;BME280;74295;50.146;8.794;2024-01-30T00:41:08;102139.22;;;1.17;87.85
84169;BME280;74295;50.146;8.794;2024-01-30T00:51:10;102126.31;;;1.03;86.74
84169;BME280;74295;50.146;8.794;2024-01-30T01:01:14;102139.09;;;1.09;86.90
84169;BME280;74295;50.146;8.794;2024-01-30T01:11:17;102148.09;;;0.99;87.44
84169;BME280;74295;50.146;8.794;2024-01-30T01:21:21;102141.75;;;0.90;87.35
84169;BME280;74295;50.146;8.794;2024-01-30T01:31:24;102152.72;;;0.87;87.09
84169;BME280;74295;50.146;8.794;2024-01-30T01:41:32;102137.28;;;0.81;88.01
84169;BME280;74295;50.146;8.794;2024-01-30T01:51:36;102140.50;;;0.75;86.93
84169;BME280;74295;50.146;8.794;2024-01-30T02:01:40;102139.66;;;0.65;87.81
84169;BME280;74295;50.146;8.794;2024-01-30T02:11:44;102126.44;;;0.73;87.18
84169;BME280;74295;50.146;8.794;2024-01-30T02:21:49;102119.13;;;0.56;88.38
84169;BME280;74295;50.146;8.794;2024-01-30T02:31:52;102126.72;;;0.51;88.22
84169;BME280;74295;50.146;8.794;2024-01-30T02:41:56;102124.84;;;0.42;87.58
84169;BME280;74295;50.146;8.794;2024-01-30T02:51:59;102131.88;;;0.43;87.93
84169;BME280;74295;50.146;8.794;2024-01-30T03:02:04;102125.13;;;0.30;88.41
84169;BME280;74295;50.146;8.794;2024-01-30T03:12:07;102128.47;;;0.32;88.55
84169;BME280;74295;50.146;8.794;2024-01-30T03:22:13;102124.56;;;0.36;87.50
84169;BME280;74295;50.146;8.794;2024-01-30T03:32:16;102122.53;;;0.19;87.77
84169;BME280;74295;50.146;8.794;2024-01-30T03:42:20;102132.06;;;0.12;87.53
84169;BME280;74295;50.146;8.794;2024-01-30T03:52:23;102124.91;;;0.12;88.18
84169;BME280;74295;50.146;8.794;2024-01-30T04:02:27;102127.84;;;0.09;87.80
84169;BME280;74295;50.146;8.794;2024-01-30T04:12:30;102124.66;;;0.15;87.90
84169;BME280;74295;50.146;8.794;2024-01-30T04:22:34;102115.50;;;0.08;87.53
84169;BME280;74295;50.146;8.794;2024-01-30T04:32:37;102113.25;;;0.03;87.65
84169;BME280;74295;50.146;8.794;2024-01-30T04:42:41;102115.09;;;0.13;88.78
84169;BME280;74295;50.146;8.794;2024-01-30T04:52:44;102119.84;;;0.09;87.99
84169;BME280;74295;50.146;8.794;2024-01-30T05:02:48;102135.72;;;0.11;88.86
84169;BME280;74295;50.146;8.794;2024-01-30T05:12:50;102129.84;;;0.17;88.37
84169;BME280;74295;50.146;8.794;2024-01-30T05:22:54;102139.97;;;0.23;88.05
84169;BME280;74295;50.146;8.794;2024-01-30T05:32:57;102135.56;;;0.12;87.31
84169;BME280;74295;50.146;8.794;2024-01-30T05:43:01;102145.22;;;0.03;87.37
84169;BME280;74295;50.146;8.794;2024-01-30T05:53:04;102143.56;;;0.03;87.68
84169;BME280;74295;50.146;8.794;2024-01-30T06:03:11;102148.13;;;-0.09;88.16
84169;BME280;74295;50.146;8.794;2024-01-30T06:13:14;102150.75;;;-0.19;87.93
84169;BME280;74295;50.146;8.794;2024-01-30T06:23:18;102151.19;;;-0.14;87.91
84169;BME280;74295;50.146;8.794;2024-01-30T06:33:21;102143.91;;;-0.12;86.91
84169;BME280;74295;50.146;8.794;2024-01-30T06:43:25;102137.88;;;-0.14;87.27
84169;BME280;74295;50.146;8.794;2024-01-30T06:53:28;102152.47;;;-0.08;87.66
84169;BME280;74295;50.146;8.794;2024-01-30T07:03:32;102158.78;;;-0.09;87.22
84169;BME280;74295;50.146;8.794;2024-01-30T07:13:35;102147.94;;;-0.17;87.88
84169;BME280;74295;50.146;8.794;2024-01-30T07:23:39;102153.72;;;-0.12;88.47
84169;BME280;74295;50.146;8.794;2024-01-30T07:33:42;102148.44;;;-0.03;87.60
84169;BME280;74295;50.146;8.794;2024-01-30T07:43:47;102146.13;;;0.23;87.55
84169;BME280;74295;50.146;8.794;2024-01-30T07:53:49;102152.03;;;0.17;88.45
84169;BME280;74295;50.146;8.794;2024-01-30T08:03:53;102144.53;;;0.41;87.52
84169;BME280;74295;50.146;8.794;2024-01-30T08:13:56;102161.72;;;0.77;86.80
84169;BME280;74295;50.146;8.794;2024-01-30T08:24:00;102177.88;;;0.94;86.77
84169;BME280;74295;50.146;8.794;2024-01-30T08:34:03;102188.84;;;1.29;86.61
84169;BME280;74295;50.146;8.794;2024-01-30T08:44:07;102182.09;;;2.09;85.41
84169;BME280;74295;50.146;8.794;2024-01-30T08:54:12;102177.63;;;2.54;83.82
84169;BME280;74295;50.146;8.794;2024-01-30T09:04:16;102186.31;;;2.66;83.50
84169;BME280;74295;50.146;8.794;2024-01-30T09:14:19;102192.66;;;2.83;84.00
84169;BME280;74295;50.146;8.794;2024-01-30T09:24:23;102175.78;;;3.00;83.85
84169;BME280;74295;50.146;8.794;2024-01-30T09:34:26;102191.09;;;3.25;83.86
84169;BME280;74295;50.146;8.794;2024-01-30T09:44:30;102192.56;;;3.62;83.84
84169;BME280;74295;50.146;8.794;2024-01-30T09:54:33;102186.88;;;3.83;83.46
84169;BME280;74295;50.146;8.794;2024-01-30T10:04:39;102188.63;;;4.25;83.25
84169;BME280;74295;50.146;8.794;2024-01-30T10:14:42;102184.06;;;4.51;83.21
84169;BME280;74295;50.146;8.794;2024-01-30T10:24:48;102182.81;;;4.79;82.28
84169;BME280;74295;50.146;8.794;2024-01-30T10:34:50;102159.50;;;4.96;82.33
84169;BME280;74295;50.146;8.794;2024-01-30T10:44:59;102164.91;;;5.28;82.43
84169;BME280;74295;50.146;8.794;2024-01-30T10:55:04;102164.06;;;5.52;81.94
84169;BME280;74295;50.146;8.794;2024-01-30T11:05:09;102151.44;;;5.76;80.85
84169;BME280;74295;50.146;8.794;2024-01-30T11:15:13;102165.91;;;5.83;80.68
84169;BME280;74295;50.146;8.794;2024-01-30T11:25:19;102155.56;;;6.19;79.76
84169;BME280;74295;50.146;8.794;2024-01-30T11:35:24;102147.47;;;6.57;78.76
84169;BME280;74295;50.146;8.794;2024-01-30T11:45:28;102148.56;;;7.01;78.29
84169;BME280;74295;50.146;8.794;2024-01-30T11:55:31;102115.53;;;7.44;75.83
84169;BME280;74295;50.146;8.794;2024-01-30T12:05:37;102096.41;;;7.83;74.96
84169;BME280;74295;50.146;8.794;2024-01-30T12:15:44;102098.09;;;7.99;73.90
84169;BME280;74295;50.146;8.794;2024-01-30T12:25:49;102103.09;;;7.87;75.25
84169;BME280;74295;50.146;8.794;2024-01-30T12:35:52;102091.03;;;8.12;74.26
84169;BME280;74295;50.146;8.794;2024-01-30T12:46:05;102088.22;;;8.35;72.85
84169;BME280;74295;50.146;8.794;2024-01-30T12:56:11;102073.88;;;8.34;73.31
84169;BME280;74295;50.146;8.794;2024-01-30T13:06:15;102074.44;;;8.30;73.40
84169;BME280;74295;50.146;8.794;2024-01-30T13:16:18;102070.47;;;8.47;72.87
84169;BME280;74295;50.146;8.794;2024-01-30T13:26:22;102055.16;;;8.54;72.66
84169;BME280;74295;50.146;8.794;2024-01-30T13:36:25;102046.19;;;8.68;72.31
84169;BME280;74295;50.146;8.794;2024-01-30T13:46:29;102068.63;;;8.47;72.73
84169;BME280;74295;50.146;8.794;2024-01-30T13:56:32;102060.88;;;8.44;72.91
84169;BME280;74295;50.146;8.794;2024-01-30T14:06:36;102061.94;;;8.43;73.69
84169;BME280;74295;50.146;8.794;2024-01-30T14:16:53;102065.06;;;8.47;73.73
84169;BME280;74295;50.146;8.794;2024-01-30T14:26:57;102074.91;;;8.33;74.47
84169;BME280;74295;50.146;8.794;2024-01-30T14:37:01;102082.09;;;8.26;74.95
84169;BME280;74295;50.146;8.794;2024-01-30T14:47:05;102090.00;;;8.13;75.60
84169;BME280;74295;50.146;8.794;2024-01-30T14:57:08;102079.00;;;8.15;75.63
84169;BME280;74295;50.146;8.794;2024-01-30T15:07:12;102089.63;;;8.02;76.53
84169;BME280;74295;50.146;8.794;2024-01-30T15:17:29;102092.25;;;7.95;77.32
84169;BME280;74295;50.146;8.794;2024-01-30T15:27:33;102108.06;;;7.83;77.42
84169;BME280;74295;50.146;8.794;2024-01-30T15:37:36;102105.44;;;7.75;77.70
84169;BME280;74295;50.146;8.794;2024-01-30T15:47:40;102108.22;;;7.67;79.09
84169;BME280;74295;50.146;8.794;2024-01-30T15:57:43;102125.81;;;7.63;78.45
84169;BME280;74295;50.146;8.794;2024-01-30T16:07:47;102136.84;;;7.54;79.08
84169;BME280;74295;50.146;8.794;2024-01-30T16:17:49;102127.34;;;7.43;79.18
84169;BME280;74295;50.146;8.794;2024-01-30T16:27:54;102123.88;;;7.35;80.22
84169;BME280;74295;50.146;8.794;2024-01-30T16:37:59;102131.72;;;7.44;79.75
84169;BME280;74295;50.146;8.794;2024-01-30T16:48:03;102138.50;;;7.40;79.96
84169;BME280;74295;50.146;8.794;2024-01-30T16:58:06;102136.88;;;7.31;80.17
84169;BME280;74295;50.146;8.794;2024-01-30T17:08:12;102145.22;;;7.22;81.51
84169;BME280;74295;50.146;8.794;2024-01-30T17:18:15;102153.78;;;7.03;81.43
84169;BME280;74295;50.146;8.794;2024-01-30T17:28:20;102176.88;;;7.05;82.06
84169;BME280;74295;50.146;8.794;2024-01-30T17:38:25;102185.94;;;6.82;82.23
84169;BME280;74295;50.146;8.794;2024-01-30T17:48:30;102206.66;;;6.81;83.16
84169;BME280;74295;50.146;8.794;2024-01-30T17:58:33;102216.56;;;6.89;82.68
84169;BME280;74295;50.146;8.794;2024-01-30T18:08:37;102220.41;;;6.94;83.03
84169;BME280;74295;50.146;8.794;2024-01-30T18:18:39;102233.00;;;7.02;82.95
84169;BME280;74295;50.146;8.794;2024-01-30T18:28:43;102246.25;;;7.11;82.10
84169;BME280;74295;50.146;8.794;2024-01-30T18:38:46;102250.66;;;7.12;83.08
84169;BME280;74295;50.146;8.794;2024-01-30T18:48:51;102267.00;;;7.11;83.00
84169;BME280;74295;50.146;8.794;2024-01-30T18:58:53;102257.25;;;7.02;83.06
84169;BME280;74295;50.146;8.794;2024-01-30T19:08:58;102252.31;;;7.13;84.39
84169;BME280;74295;50.146;8.794;2024-01-30T19:19:00;102262.84;;;7.31;84.51
84169;BME280;74295;50.146;8.794;2024-01-30T19:29:09;102270.28;;;7.51;84.48
84169;BME280;74295;50.146;8.794;2024-01-30T19:39:11;102290.63;;;7.62;84.03
84169;BME280;74295;50.146;8.794;2024-01-30T19:49:16;102298.03;;;7.60;84.71
84169;BME280;74295;50.146;8.794;2024-01-30T19:59:18;102292.63;;;7.68;84.23
84169;BME280;74295;50.146;8.794;2024-01-30T20:09:23;102284.69;;;7.66;84.03
84169;BME280;74295;50.146;8.794;2024-01-30T20:19:26;102237.19;;;7.35;84.24
84169;BME280;74295;50.146;8.794;2024-01-30T20:29:30;102305.84;;;7.55;84.85
84169;BME280;74295;50.146;8.794;2024-01-30T20:39:33;102313.09;;;7.54;84.28
84169;BME280;74295;50.146;8.794;2024-01-30T20:49:37;102296.97;;;7.46;85.21
84169;BME280;74295;50.146;8.794;2024-01-30T20:59:40;102309.94;;;7.51;84.89
84169;BME280;74295;50.146;8.794;2024-01-30T21:09:44;102309.44;;;7.47;85.71
84169;BME280;74295;50.146;8.794;2024-01-30T21:19:46;102295.28;;;7.45;84.90
84169;BME280;74295;50.146;8.794;2024-01-30T21:29:51;102300.84;;;7.44;85.91
84169;BME280;74295;50.146;8.794;2024-01-30T21:39:53;102312.66;;;7.43;85.72
84169;BME280;74295;50.146;8.794;2024-01-30T21:49:58;102316.41;;;7.34;85.83
84169;BME280;74295;50.146;8.794;2024-01-30T22:00:01;102320.81;;;7.35;85.57
84169;BME280;74295;50.146;8.794;2024-01-30T22:10:06;102331.53;;;7.51;86.91
84169;BME280;74295;50.146;8.794;2024-01-30T22:20:09;102330.09;;;7.63;86.87
84169;BME280;74295;50.146;8.794;2024-01-30T22:30:14;102348.72;;;7.72;87.03
84169;BME280;74295;50.146;8.794;2024-01-30T22:40:17;102350.44;;;7.73;87.27
84169;BME280;74295;50.146;8.794;2024-01-30T22:50:21;102352.81;;;7.68;87.86
84169;BME280;74295;50.146;8.794;2024-01-30T23:00:24;102374.84;;;7.80;89.57
84169;BME280;74295;50.146;8.794;2024-01-30T23:10:28;102376.13;;;7.92;88.88
84169;BME280;74295;50.146;8.794;2024-01-30T23:20:31;102384.41;;;7.91;89.97
84169;BME280;74295;50.146;8.794;2024-01-30T23:30:35;102389.31;;;7.87;90.51
84169;BME280;74295;50.146;8.794;2024-01-30T23:40:38;102390.88;;;7.81;90.48
84169;BME280;74295;50.146;8.794;2024-01-30T23:50:45;102385.19;;;7.76;90.50
